Time;durP1;ratioP1;P1;durP2;ratioP2;P2;SDS_P1;SDS_P2;PMS_P1;PMS_P2;Temp;Humidity;BMP_temperature;BMP_pressure;BME280_temperature;BME280_humidity;BME280_pressure;Samples;Min_cycle;Max_cycle;Signal;HPM_P1;HPM_P2
2023/05/27 00:01:26;;;;;;;19.23;7.63;;;13.70;99.90;;;;;;5130303;27;20825;-67
2023/05/27 00:03:52;;;;;;;11.53;6.33;;;13.60;99.90;;;;;;5130433;27;20181;-67
2023/05/27 00:06:17;;;;;;;16.17;6.90;;;13.60;99.90;;;;;;5130259;27;20205;-67
2023/05/27 00:08:43;;;;;;;14.33;5.90;;;13.60;99.90;;;;;;5130194;27;20560;-67
2023/05/27 00:11:09;;;;;;;10.20;5.93;;;13.60;99.90;;;;;;5130228;27;20187;-67
2023/05/27 00:13:34;;;;;;;15.20;6.67;;;13.70;99.90;;;;;;5130268;27;20216;-67
2023/05/27 00:16:00;;;;;;;11.47;7.00;;;13.60;99.90;;;;;;5130084;27;20189;-67
2023/05/27 00:18:25;;;;;;;13.57;7.50;;;13.70;99.90;;;;;;5111468;27;20223;-67
2023/05/27 00:20:51;;;;;;;12.43;6.97;;;13.50;99.90;;;;;;5130001;27;21132;-67
2023/05/27 00:23:17;;;;;;;17.70;7.23;;;13.50;99.90;;;;;;5129954;27;20185;-67
2023/05/27 00:25:43;;;;;;;13.90;7.17;;;13.50;99.90;;;;;;5130115;27;20185;-67
2023/05/27 00:28:08;;;;;;;13.30;6.70;;;13.50;99.90;;;;;;5129805;27;20206;-67
2023/05/27 00:30:34;;;;;;;10.53;6.57;;;13.40;99.90;;;;;;5111406;27;20173;-67
2023/05/27 00:33:00;;;;;;;14.60;5.93;;;13.50;99.90;;;;;;5129732;27;20446;-67
2023/05/27 00:35:25;;;;;;;10.57;5.97;;;13.50;99.90;;;;;;5129756;27;20719;-67
2023/05/27 00:37:51;;;;;;;16.10;6.03;;;13.40;99.90;;;;;;5130087;27;20206;-67
2023/05/27 00:40:22;;;;;;;13.70;5.60;;;13.40;99.90;;;;;;5111425;27;20272;-67
2023/05/27 00:42:47;;;;;;;14.00;6.07;;;13.60;99.90;;;;;;5129451;27;20238;-67
2023/05/27 00:45:13;;;;;;;12.33;6.00;;;13.60;99.90;;;;;;5111052;27;20918;-67
2023/05/27 00:47:39;;;;;;;13.40;5.30;;;13.60;99.90;;;;;;5129735;27;20197;-67
2023/05/27 00:50:07;;;;;;;15.70;5.00;;;13.60;99.90;;;;;;5129586;27;20268;-67
2023/05/27 00:52:33;;;;;;;14.30;5.93;;;13.60;99.90;;;;;;5110710;27;20189;-67
2023/05/27 00:54:59;;;;;;;11.57;5.60;;;13.50;99.90;;;;;;5129572;27;20415;-67
2023/05/27 00:57:26;;;;;;;13.17;6.00;;;13.40;99.90;;;;;;5129367;27;20439;-67
2023/05/27 00:59:52;;;;;;;8.03;5.37;;;13.40;99.90;;;;;;5094092;27;20537;-68
2023/05/27 01:02:18;;;;;;;14.83;6.40;;;13.30;99.90;;;;;;5129491;27;20466;-67
2023/05/27 01:04:46;;;;;;;12.57;6.57;;;13.20;99.90;;;;;;5129646;27;20808;-67
2023/05/27 01:07:30;;;;;;;14.20;6.67;;;13.10;99.90;;;;;;5111055;28;20205;-67
2023/05/27 01:10:12;;;;;;;14.60;6.50;;;13.00;99.90;;;;;;5130017;27;20395;-67
2023/05/27 01:12:44;;;;;;;23.63;7.70;;;12.70;99.90;;;;;;5129649;27;20774;-67
2023/05/27 01:15:10;;;;;;;13.23;6.30;;;12.50;99.90;;;;;;5129688;28;20415;-67
2023/05/27 01:17:37;;;;;;;17.50;8.00;;;12.40;99.90;;;;;;5128655;27;21162;-67
2023/05/27 01:20:05;;;;;;;14.97;6.63;;;12.60;99.90;;;;;;5129392;28;20449;-66
2023/05/27 01:22:31;;;;;;;13.87;6.90;;;12.50;99.90;;;;;;5129531;28;20466;-67
2023/05/27 01:24:57;;;;;;;11.43;6.87;;;12.40;99.90;;;;;;5130054;28;20909;-67
2023/05/27 01:27:24;;;;;;;9.00;6.37;;;12.40;99.90;;;;;;5129820;27;20456;-67
2023/05/27 01:29:51;;;;;;;13.17;6.43;;;12.40;99.90;;;;;;5130037;28;20172;-67
2023/05/27 01:32:24;;;;;;;15.30;6.43;;;12.30;99.90;;;;;;5111369;28;20429;-67
2023/05/27 01:35:12;;;;;;;16.90;7.03;;;12.30;99.90;;;;;;5130214;27;20433;-67
2023/05/27 01:37:41;;;;;;;15.73;6.67;;;12.30;99.90;;;;;;5130027;27;20442;-68
2023/05/27 01:40:08;;;;;;;10.30;6.10;;;12.10;99.90;;;;;;5129929;28;20423;-65
2023/05/27 01:42:39;;;;;;;11.47;6.13;;;12.10;99.90;;;;;;5129751;28;20493;-66
2023/05/27 01:45:07;;;;;;;10.93;6.30;;;12.10;99.90;;;;;;5130072;28;20891;-66
2023/05/27 01:47:33;;;;;;;10.73;6.30;;;12.10;99.90;;;;;;5129970;27;21020;-66
2023/05/27 01:49:59;;;;;;;13.47;5.73;;;12.10;99.90;;;;;;5129889;28;20425;-68
2023/05/27 01:52:25;;;;;;;14.87;6.67;;;11.90;99.90;;;;;;5111186;28;20433;-68
2023/05/27 01:54:51;;;;;;;16.07;6.80;;;11.90;99.90;;;;;;5129675;27;20953;-67
2023/05/27 01:57:18;;;;;;;14.63;5.40;;;11.90;99.90;;;;;;5129667;27;20445;-67
2023/05/27 01:59:43;;;;;;;9.23;6.00;;;11.70;99.90;;;;;;5129689;28;20184;-68
2023/05/27 02:02:09;;;;;;;15.57;6.83;;;11.70;99.90;;;;;;5129491;28;20473;-68
2023/05/27 02:04:35;;;;;;;14.73;6.10;;;11.70;99.90;;;;;;5129599;28;20181;-67
2023/05/27 02:07:00;;;;;;;20.50;6.70;;;11.60;99.90;;;;;;5129571;27;20293;-67
2023/05/27 02:09:26;;;;;;;13.53;6.63;;;11.60;99.90;;;;;;5111219;28;20936;-67
2023/05/27 02:11:52;;;;;;;10.07;5.40;;;11.60;99.90;;;;;;5129682;28;20199;-67
2023/05/27 02:14:18;;;;;;;10.07;5.60;;;11.60;99.90;;;;;;5111080;28;20191;-66
2023/05/27 02:16:44;;;;;;;22.20;6.57;;;11.50;99.90;;;;;;5111132;28;20209;-67
2023/05/27 02:19:10;;;;;;;14.77;6.17;;;11.50;99.90;;;;;;5129625;28;20889;-66
2023/05/27 02:21:35;;;;;;;17.13;6.77;;;11.50;99.90;;;;;;5129595;27;20475;-67
2023/05/27 02:24:02;;;;;;;10.13;5.93;;;11.50;99.90;;;;;;5129743;28;20430;-67
2023/05/27 02:26:28;;;;;;;11.43;6.10;;;11.50;99.90;;;;;;5129265;27;20213;-67
2023/05/27 02:28:53;;;;;;;14.17;6.47;;;11.50;99.90;;;;;;5129516;27;20501;-67
2023/05/27 02:31:19;;;;;;;10.43;5.83;;;11.40;99.90;;;;;;5133020;27;20188;-67
2023/05/27 02:33:45;;;;;;;12.30;5.90;;;11.40;99.90;;;;;;5114316;27;20499;-67
2023/05/27 02:36:11;;;;;;;10.87;6.03;;;11.40;99.90;;;;;;5132251;27;20185;-67
2023/05/27 02:38:37;;;;;;;13.17;5.70;;;11.30;99.90;;;;;;5132294;27;20187;-67
2023/05/27 02:41:03;;;;;;;13.07;5.70;;;11.20;99.90;;;;;;5132025;27;20295;-67
2023/05/27 02:43:29;;;;;;;11.00;6.10;;;11.00;99.90;;;;;;5113684;27;21001;-67
2023/05/27 02:45:54;;;;;;;10.83;5.97;;;11.00;99.90;;;;;;5132379;27;20181;-66
2023/05/27 02:48:20;;;;;;;13.60;6.57;;;11.00;99.90;;;;;;5132154;27;20207;-67
2023/05/27 02:50:46;;;;;;;14.07;5.03;;;11.00;99.90;;;;;;5132346;27;20222;-67
2023/05/27 02:53:11;;;;;;;9.17;5.13;;;10.90;99.90;;;;;;5132258;27;20174;-67
2023/05/27 02:55:37;;;;;;;11.37;5.50;;;10.90;99.90;;;;;;5132280;27;20207;-66
2023/05/27 02:58:04;;;;;;;11.97;5.60;;;10.80;99.90;;;;;;5113714;27;20202;-67
2023/05/27 03:00:31;;;;;;;17.17;6.20;;;10.80;99.90;;;;;;5132149;27;20219;-67
2023/05/27 03:02:56;;;;;;;17.80;6.30;;;10.60;99.90;;;;;;5131968;27;20566;-67
2023/05/27 03:05:22;;;;;;;21.20;6.37;;;10.60;99.90;;;;;;5113678;27;21008;-66
2023/05/27 03:07:47;;;;;;;12.70;6.20;;;10.60;99.90;;;;;;5131874;27;20213;-67
2023/05/27 03:10:13;;;;;;;11.90;5.50;;;10.60;99.90;;;;;;5132122;27;20178;-66
2023/05/27 03:12:39;;;;;;;12.87;6.47;;;10.60;99.90;;;;;;5113373;27;20208;-66
2023/05/27 03:15:05;;;;;;;12.53;5.83;;;10.70;99.90;;;;;;5113491;27;20266;-67
2023/05/27 03:17:31;;;;;;;16.97;6.33;;;10.70;99.90;;;;;;5131991;27;20206;-67
2023/05/27 03:19:57;;;;;;;12.27;5.83;;;10.70;99.90;;;;;;5131855;27;20518;-67
2023/05/27 03:22:23;;;;;;;13.83;5.53;;;10.60;99.90;;;;;;5113295;27;20353;-66
2023/05/27 03:24:49;;;;;;;14.50;6.93;;;10.70;99.90;;;;;;5131461;27;20433;-67
2023/05/27 03:27:15;;;;;;;15.83;6.77;;;10.60;99.90;;;;;;5131363;27;20628;-67
2023/05/27 03:29:41;;;;;;;12.13;5.00;;;10.60;99.90;;;;;;5131516;27;20644;-66
2023/05/27 03:32:07;;;;;;;13.00;5.60;;;10.60;99.90;;;;;;5112657;27;20193;-67
2023/05/27 03:34:33;;;;;;;14.57;5.53;;;10.60;99.90;;;;;;5131169;27;20424;-66
2023/05/27 03:36:58;;;;;;;14.90;5.90;;;10.60;99.90;;;;;;5130962;27;20693;-66
2023/05/27 03:39:24;;;;;;;13.27;5.60;;;10.70;99.90;;;;;;5112382;27;20549;-66
2023/05/27 03:41:50;;;;;;;13.60;4.67;;;10.50;99.90;;;;;;5130177;27;20210;-66
2023/05/27 03:44:15;;;;;;;18.73;5.67;;;10.50;99.90;;;;;;5130889;27;20186;-66
2023/05/27 03:46:41;;;;;;;18.83;6.00;;;10.50;99.90;;;;;;5130808;27;20595;-67
2023/05/27 03:49:07;;;;;;;11.90;5.63;;;10.50;99.90;;;;;;5095123;27;20279;-67
2023/05/27 03:51:32;;;;;;;10.73;4.90;;;10.50;99.90;;;;;;5112430;27;20193;-66
2023/05/27 03:53:58;;;;;;;16.93;6.43;;;10.40;99.90;;;;;;5130842;27;20238;-67
2023/05/27 03:56:23;;;;;;;12.90;5.63;;;10.40;99.90;;;;;;5130596;27;20188;-66
2023/05/27 03:58:50;;;;;;;8.80;4.80;;;10.40;99.90;;;;;;5130666;27;20192;-67
2023/05/27 04:01:16;;;;;;;16.63;5.60;;;10.40;99.90;;;;;;5130571;27;20218;-67
2023/05/27 04:03:43;;;;;;;17.63;6.20;;;10.50;99.90;;;;;;5111960;27;20935;-67
2023/05/27 04:06:09;;;;;;;11.00;5.40;;;10.50;99.90;;;;;;5111968;27;20923;-66
2023/05/27 04:08:35;;;;;;;16.90;6.40;;;10.60;99.90;;;;;;5130519;27;20531;-67
2023/05/27 04:11:01;;;;;;;15.57;5.90;;;10.60;99.90;;;;;;5130425;27;20449;-67
2023/05/27 04:13:27;;;;;;;16.10;5.83;;;10.70;99.90;;;;;;5111742;27;20910;-66
2023/05/27 04:15:53;;;;;;;13.20;5.90;;;10.70;99.90;;;;;;5130553;27;20426;-67
2023/05/27 04:18:19;;;;;;;11.67;6.00;;;10.70;99.90;;;;;;5130337;27;20636;-66
2023/05/27 04:20:47;;;;;;;13.17;5.10;;;10.60;99.90;;;;;;5130163;27;20446;-67
2023/05/27 04:23:13;;;;;;;9.60;5.00;;;10.70;99.90;;;;;;5130182;27;20411;-67
2023/05/27 04:25:39;;;;;;;9.27;5.27;;;10.70;99.90;;;;;;5129985;27;20420;-67
2023/05/27 04:28:05;;;;;;;10.60;4.80;;;10.70;99.90;;;;;;5129790;27;20427;-67
2023/05/27 04:30:31;;;;;;;8.83;4.93;;;10.80;99.90;;;;;;5130061;27;20647;-67
2023/05/27 04:32:58;;;;;;;18.33;5.03;;;10.90;99.90;;;;;;5129944;27;20512;-66
2023/05/27 04:35:23;;;;;;;12.40;6.10;;;10.90;99.90;;;;;;5130136;27;20453;-67
2023/05/27 04:37:49;;;;;;;13.30;5.20;;;11.00;99.90;;;;;;5129993;27;21069;-67
2023/05/27 04:40:15;;;;;;;23.80;7.07;;;11.10;99.90;;;;;;5129941;27;20270;-66
2023/05/27 04:42:40;;;;;;;8.93;5.10;;;11.10;99.90;;;;;;5111018;27;20725;-66
2023/05/27 04:45:08;;;;;;;16.77;5.93;;;11.20;99.90;;;;;;5129976;27;20180;-67
2023/05/27 04:47:36;;;;;;;16.43;5.53;;;11.10;99.90;;;;;;5111247;27;20204;-66
2023/05/27 04:50:05;;;;;;;15.80;6.20;;;11.30;99.90;;;;;;5129669;27;20505;-67
2023/05/27 04:52:36;;;;;;;12.73;5.67;;;11.30;99.90;;;;;;5128654;27;20416;-67
2023/05/27 04:55:06;;;;;;;10.63;4.60;;;11.50;99.90;;;;;;5129919;27;20425;-66
2023/05/27 04:57:32;;;;;;;12.80;5.43;;;11.50;99.90;;;;;;5129444;27;20816;-66
2023/05/27 05:00:17;;;;;;;11.50;4.83;;;11.60;99.90;;;;;;5129387;27;20934;-66
2023/05/27 05:02:46;;;;;;;13.57;4.50;;;11.70;99.90;;;;;;5129156;27;20474;-67
2023/05/27 05:05:11;;;;;;;16.47;5.23;;;11.90;99.90;;;;;;5110533;27;20432;-66
2023/05/27 05:07:39;;;;;;;13.97;5.63;;;12.10;99.90;;;;;;5129438;27;20820;-66
2023/05/27 05:10:15;;;;;;;12.17;5.80;;;12.20;99.90;;;;;;5110603;27;20187;-66
2023/05/27 05:12:41;;;;;;;14.90;6.10;;;12.20;99.90;;;;;;5129429;27;20757;-66
2023/05/27 05:15:07;;;;;;;15.40;5.70;;;12.30;99.90;;;;;;5129295;27;20422;-66
2023/05/27 05:17:33;;;;;;;20.37;6.23;;;12.40;99.90;;;;;;5129219;27;20795;-67
2023/05/27 05:19:58;;;;;;;15.17;6.10;;;12.30;99.90;;;;;;5129248;28;20497;-67
2023/05/27 05:22:25;;;;;;;15.43;6.70;;;12.50;99.90;;;;;;5129310;28;20741;-67
2023/05/27 05:24:51;;;;;;;14.20;5.40;;;12.70;99.90;;;;;;5111121;28;20677;-67
2023/05/27 05:27:17;;;;;;;14.93;5.40;;;12.80;99.90;;;;;;5129253;27;20450;-67
2023/05/27 05:29:43;;;;;;;14.57;5.20;;;12.90;99.90;;;;;;5129141;28;20188;-67
2023/05/27 05:32:11;;;;;;;12.03;5.10;;;13.00;99.90;;;;;;5129087;27;20543;-66
2023/05/27 05:34:37;;;;;;;9.90;5.30;;;13.10;99.90;;;;;;5110262;27;20542;-67
2023/05/27 05:37:03;;;;;;;15.07;5.63;;;13.20;99.90;;;;;;5128976;27;20438;-66
2023/05/27 05:39:29;;;;;;;15.97;5.77;;;13.30;99.90;;;;;;5129067;28;20419;-66
2023/05/27 05:41:55;;;;;;;11.53;5.40;;;13.40;99.90;;;;;;5129121;28;21004;-68
2023/05/27 05:44:22;;;;;;;16.77;5.47;;;13.40;99.90;;;;;;5128942;28;20181;-66
2023/05/27 05:46:48;;;;;;;11.80;4.70;;;13.60;99.90;;;;;;5110729;28;20444;-66
2023/05/27 05:49:13;;;;;;;15.10;4.87;;;13.70;99.90;;;;;;5128873;27;20415;-66
2023/05/27 05:51:39;;;;;;;13.17;5.63;;;13.70;99.90;;;;;;5128954;28;20185;-66
2023/05/27 05:54:05;;;;;;;14.53;5.53;;;13.80;99.90;;;;;;5128972;28;20192;-66
2023/05/27 05:56:31;;;;;;;12.40;5.73;;;13.90;99.90;;;;;;5128859;27;20231;-66
2023/05/27 05:58:56;;;;;;;12.10;5.50;;;14.10;99.90;;;;;;5110481;28;20692;-67
2023/05/27 06:01:22;;;;;;;17.60;5.97;;;14.20;99.90;;;;;;5128866;27;20454;-66
2023/05/27 06:03:48;;;;;;;13.70;6.53;;;14.20;99.90;;;;;;5128988;27;20230;-67
2023/05/27 06:06:14;;;;;;;14.47;5.37;;;14.20;99.90;;;;;;5132627;27;20414;-69
2023/05/27 06:08:40;;;;;;;19.33;5.07;;;14.30;99.90;;;;;;5114222;27;20185;-67
2023/05/27 06:11:06;;;;;;;11.80;5.27;;;14.40;99.90;;;;;;5132732;27;20418;-67
2023/05/27 06:13:32;;;;;;;14.37;5.30;;;14.50;99.90;;;;;;5132673;27;20778;-66
2023/05/27 06:15:57;;;;;;;21.03;5.07;;;14.60;99.90;;;;;;5114013;27;20193;-66
2023/05/27 06:18:23;;;;;;;14.97;5.30;;;14.70;99.90;;;;;;5132372;27;20208;-66
2023/05/27 06:20:48;;;;;;;18.53;5.70;;;14.80;99.90;;;;;;5132511;27;20195;-68
2023/05/27 06:23:14;;;;;;;11.67;4.97;;;14.90;99.90;;;;;;5132571;27;20185;-65
2023/05/27 06:25:39;;;;;;;12.20;5.10;;;15.00;99.90;;;;;;5132229;27;20250;-65
2023/05/27 06:28:05;;;;;;;22.47;6.70;;;15.10;99.90;;;;;;5132331;27;20628;-66
2023/05/27 06:30:35;;;;;;;11.10;5.10;;;15.20;99.90;;;;;;5132774;27;20181;-66
2023/05/27 06:33:01;;;;;;;17.43;5.47;;;15.30;99.90;;;;;;5132146;27;20423;-66
2023/05/27 06:35:27;;;;;;;13.80;5.03;;;15.30;99.90;;;;;;5132472;27;20458;-66
2023/05/27 06:37:52;;;;;;;15.53;5.10;;;15.30;99.90;;;;;;5131983;27;20229;-66
2023/05/27 06:40:18;;;;;;;13.67;5.10;;;15.30;99.90;;;;;;5132335;27;20185;-66
2023/05/27 06:42:44;;;;;;;20.63;6.03;;;15.40;99.90;;;;;;5131767;27;20220;-67
2023/05/27 06:45:10;;;;;;;13.80;6.33;;;15.50;99.90;;;;;;5113168;27;20190;-67
2023/05/27 06:47:36;;;;;;;21.73;6.03;;;15.50;99.90;;;;;;5131782;27;20451;-67
2023/05/27 06:50:02;;;;;;;20.03;5.60;;;15.60;99.90;;;;;;5113339;27;20914;-66
2023/05/27 06:52:27;;;;;;;13.30;5.00;;;15.70;99.90;;;;;;5131838;27;20185;-67
2023/05/27 06:54:53;;;;;;;10.40;5.37;;;15.70;99.90;;;;;;5131788;27;20938;-67
2023/05/27 06:57:19;;;;;;;14.77;4.70;;;15.80;99.90;;;;;;5131891;27;20659;-67
2023/05/27 06:59:44;;;;;;;18.10;5.13;;;15.80;99.90;;;;;;5131837;27;20181;-67
2023/05/27 07:02:10;;;;;;;15.43;5.90;;;15.90;99.90;;;;;;5131610;27;20217;-67
2023/05/27 07:04:35;;;;;;;17.80;6.47;;;16.00;99.90;;;;;;5131038;27;20284;-67
2023/05/27 07:07:02;;;;;;;18.27;5.80;;;16.20;99.90;;;;;;5111916;27;20209;-68
2023/05/27 07:09:28;;;;;;;16.10;5.20;;;16.20;99.90;;;;;;5130454;27;20184;-67
2023/05/27 07:11:53;;;;;;;10.67;5.00;;;16.30;99.90;;;;;;5130525;27;20431;-67
2023/05/27 07:14:19;;;;;;;14.10;5.33;;;16.40;99.90;;;;;;5130231;27;20179;-67
2023/05/27 07:16:45;;;;;;;10.80;5.50;;;16.50;99.90;;;;;;5129074;27;20202;-66
2023/05/27 07:19:10;;;;;;;17.13;5.30;;;16.50;99.90;;;;;;5130386;27;20275;-67
2023/05/27 07:21:36;;;;;;;16.93;6.00;;;16.60;99.90;;;;;;5130145;27;20505;-67
2023/05/27 07:24:04;;;;;;;17.03;5.43;;;16.70;99.90;;;;;;5111806;27;20188;-66
2023/05/27 07:26:31;;;;;;;11.00;5.33;;;16.70;99.90;;;;;;5130235;27;20200;-67
2023/05/27 07:28:58;;;;;;;14.13;5.70;;;16.80;99.90;;;;;;5130255;27;20423;-67
2023/05/27 07:31:24;;;;;;;16.33;6.47;;;16.80;99.90;;;;;;5130492;27;20524;-68
2023/05/27 07:33:50;;;;;;;24.43;6.40;;;16.90;99.90;;;;;;5130324;27;20463;-66
2023/05/27 07:36:15;;;;;;;15.83;6.07;;;16.90;99.90;;;;;;5129844;27;20471;-66
2023/05/27 07:38:41;;;;;;;12.07;4.50;;;17.00;99.90;;;;;;5130067;27;20195;-67
2023/05/27 07:41:07;;;;;;;16.53;5.90;;;17.10;99.90;;;;;;5129822;27;20746;-66
2023/05/27 07:43:32;;;;;;;17.93;4.93;;;17.10;99.90;;;;;;5130169;27;20235;-67
2023/05/27 07:45:58;;;;;;;15.93;4.97;;;17.20;99.90;;;;;;5130381;27;20657;-67
2023/05/27 07:48:23;;;;;;;16.43;5.20;;;17.30;99.90;;;;;;5111484;27;20212;-67
2023/05/27 07:50:49;;;;;;;13.30;5.37;;;17.40;99.90;;;;;;5130367;27;20263;-67
2023/05/27 07:53:15;;;;;;;16.47;5.80;;;17.60;99.90;;;;;;5130563;27;20613;-67
2023/05/27 07:55:40;;;;;;;14.77;5.70;;;17.60;99.90;;;;;;5130204;27;20219;-67
2023/05/27 07:58:06;;;;;;;12.60;5.30;;;17.80;99.90;;;;;;5111713;27;20202;-67
2023/05/27 08:00:32;;;;;;;13.23;5.70;;;17.80;99.90;;;;;;5130207;27;20180;-66
2023/05/27 08:02:57;;;;;;;19.93;5.53;;;18.00;99.90;;;;;;5111578;27;20242;-67
2023/05/27 08:05:23;;;;;;;16.90;4.97;;;18.00;99.90;;;;;;5130027;27;20431;-67
2023/05/27 08:07:49;;;;;;;14.70;5.77;;;18.10;99.90;;;;;;5111554;27;20233;-67
2023/05/27 08:10:14;;;;;;;17.30;5.90;;;18.30;99.90;;;;;;5130133;27;20618;-67
2023/05/27 08:12:40;;;;;;;22.63;5.93;;;18.30;99.90;;;;;;5130136;27;20181;-67
2023/05/27 08:15:06;;;;;;;18.43;7.27;;;18.40;99.90;;;;;;5130024;27;20187;-67
2023/05/27 08:17:32;;;;;;;15.90;5.40;;;18.50;99.90;;;;;;5129725;27;20205;-67
2023/05/27 08:19:57;;;;;;;21.10;5.70;;;18.70;99.90;;;;;;5111160;27;20507;-67
2023/05/27 08:22:23;;;;;;;15.13;5.47;;;18.80;99.90;;;;;;5129573;27;20209;-67
2023/05/27 08:24:49;;;;;;;12.37;4.93;;;19.20;99.90;;;;;;5129427;27;20181;-67
2023/05/27 08:27:16;;;;;;;12.70;5.67;;;19.30;99.90;;;;;;5129099;27;20204;-67
2023/05/27 08:29:42;;;;;;;14.60;5.70;;;19.50;99.90;;;;;;5129303;27;20504;-67
2023/05/27 08:32:07;;;;;;;13.67;5.70;;;19.70;99.90;;;;;;5129389;27;20524;-67
2023/05/27 08:34:33;;;;;;;16.03;5.50;;;19.90;99.90;;;;;;5128857;27;21110;-67
2023/05/27 08:37:00;;;;;;;12.00;5.73;;;20.00;99.90;;;;;;5110698;27;20303;-66
2023/05/27 08:39:26;;;;;;;19.30;5.60;;;20.00;99.90;;;;;;5129360;27;20187;-67
2023/05/27 08:41:53;;;;;;;15.10;5.67;;;20.10;99.90;;;;;;5129370;27;20474;-67
2023/05/27 08:44:21;;;;;;;11.63;5.70;;;20.30;99.90;;;;;;5129605;27;20415;-67
2023/05/27 08:46:49;;;;;;;13.57;6.73;;;20.50;99.90;;;;;;5129441;27;20453;-67
2023/05/27 08:49:15;;;;;;;16.20;5.80;;;20.70;99.90;;;;;;5093743;27;20429;-67
2023/05/27 08:51:41;;;;;;;12.93;5.70;;;20.80;99.90;;;;;;5129227;27;20415;-67
2023/05/27 08:54:09;;;;;;;11.67;5.13;;;21.00;99.90;;;;;;5129143;27;20415;-67
2023/05/27 08:56:36;;;;;;;14.20;5.27;;;21.20;99.90;;;;;;5128988;27;20454;-67
2023/05/27 08:59:02;;;;;;;11.73;5.90;;;21.50;99.90;;;;;;5128865;27;20506;-67
2023/05/27 09:01:28;;;;;;;14.37;6.03;;;21.60;99.30;;;;;;5128624;27;20597;-67
2023/05/27 09:03:56;;;;;;;11.47;6.10;;;21.70;98.40;;;;;;5128748;27;20396;-67
2023/05/27 09:06:22;;;;;;;10.00;5.40;;;21.80;97.40;;;;;;5128610;27;20425;-67
2023/05/27 09:08:48;;;;;;;16.93;5.57;;;22.10;97.60;;;;;;5128811;27;20419;-68
2023/05/27 09:11:22;;;;;;;10.43;5.43;;;22.50;97.00;;;;;;5128635;27;20210;-67
2023/05/27 09:13:48;;;;;;;10.80;5.73;;;22.60;96.80;;;;;;5128298;27;20184;-67
2023/05/27 09:16:14;;;;;;;13.63;5.80;;;22.80;96.30;;;;;;5128544;27;20944;-67
2023/05/27 09:18:42;;;;;;;10.00;5.87;;;23.00;95.00;;;;;;5128570;27;21006;-74
2023/05/27 09:21:08;;;;;;;11.50;5.87;;;23.30;95.90;;;;;;5110122;28;20212;-74
2023/05/27 09:23:40;;;;;;;13.00;5.43;;;23.40;93.40;;;;;;5109895;28;20432;-74
2023/05/27 09:26:10;;;;;;;12.83;5.83;;;23.50;93.30;;;;;;5109891;28;20183;-74
2023/05/27 09:28:37;;;;;;;7.03;5.40;;;23.80;93.30;;;;;;5110666;28;20424;-73
2023/05/27 09:31:07;;;;;;;14.63;5.30;;;24.10;92.40;;;;;;5092885;27;20419;-74
2023/05/27 09:33:38;;;;;;;17.77;6.70;;;24.40;92.00;;;;;;5128384;28;20810;-75
2023/05/27 09:36:05;;;;;;;8.37;4.47;;;24.50;91.40;;;;;;5110252;28;20805;-74
2023/05/27 09:38:31;;;;;;;9.83;5.60;;;24.60;91.50;;;;;;5128750;27;20498;-74
2023/05/27 09:40:58;;;;;;;13.67;6.40;;;24.50;90.90;;;;;;5114242;27;20426;-73
2023/05/27 09:43:25;;;;;;;11.03;5.43;;;24.00;90.10;;;;;;5133278;27;20844;-72
2023/05/27 09:45:58;;;;;;;11.57;5.67;;;24.00;91.40;;;;;;5133392;27;20424;-73
2023/05/27 09:48:25;;;;;;;11.83;5.50;;;24.30;91.30;;;;;;5133381;27;20853;-69
2023/05/27 09:50:52;;;;;;;12.67;5.47;;;24.40;90.60;;;;;;5133490;27;20527;-68
2023/05/27 09:53:20;;;;;;;13.57;5.90;;;24.50;90.50;;;;;;5133434;27;20419;-70
2023/05/27 09:55:46;;;;;;;12.40;6.13;;;24.50;89.70;;;;;;5133335;27;20456;-69
2023/05/27 09:58:12;;;;;;;16.43;5.57;;;24.90;90.20;;;;;;5114956;27;20459;-69
2023/05/27 10:00:40;;;;;;;9.73;5.40;;;25.00;90.60;;;;;;5114655;27;20531;-69
2023/05/27 10:03:07;;;;;;;14.00;5.43;;;25.30;88.70;;;;;;5133166;27;20586;-69
2023/05/27 10:05:34;;;;;;;10.17;5.70;;;25.50;87.30;;;;;;5133014;27;20416;-67
2023/05/27 10:07:59;;;;;;;12.83;5.70;;;25.70;86.60;;;;;;5132811;27;20533;-68
2023/05/27 10:10:25;;;;;;;13.90;6.37;;;25.80;86.80;;;;;;5133079;27;20501;-69
2023/05/27 10:12:53;;;;;;;16.87;6.30;;;25.80;84.90;;;;;;5132714;27;20184;-70
2023/05/27 10:15:51;;;;;;;14.37;5.50;;;25.90;85.00;;;;;;5131863;27;20421;-71
2023/05/27 10:18:25;;;;;;;12.10;5.70;;;26.10;82.60;;;;;;5130551;27;20449;-71
2023/05/27 10:20:51;;;;;;;12.37;5.40;;;26.20;83.30;;;;;;5131701;27;20449;-70
2023/05/27 10:23:25;;;;;;;12.87;6.17;;;26.00;79.60;;;;;;5131179;27;20418;-70
2023/05/27 10:26:01;;;;;;;9.27;5.50;;;25.70;81.60;;;;;;5131064;27;20844;-70
2023/05/27 10:28:28;;;;;;;9.70;5.90;;;25.60;81.70;;;;;;5131032;27;20429;-70
2023/05/27 10:31:05;;;;;;;10.50;5.67;;;25.50;81.00;;;;;;5112817;27;20410;-70
2023/05/27 10:33:33;;;;;;;10.10;5.37;;;25.30;79.40;;;;;;5112435;27;20418;-71
2023/05/27 10:36:15;;;;;;;13.03;6.37;;;25.10;80.60;;;;;;5131006;27;21050;-71
2023/05/27 10:38:58;;;;;;;13.27;6.47;;;24.90;80.60;;;;;;5131131;27;20482;-71
2023/05/27 10:41:23;;;;;;;9.70;5.80;;;24.70;84.90;;;;;;5131036;27;20533;-71
2023/05/27 10:43:57;;;;;;;12.43;5.87;;;24.80;83.30;;;;;;5130937;27;20450;-71
2023/05/27 10:46:22;;;;;;;11.90;5.33;;;24.80;83.10;;;;;;5112053;27;20432;-71
2023/05/27 10:48:48;;;;;;;10.90;5.80;;;24.80;81.90;;;;;;5130878;27;20417;-71
2023/05/27 10:51:14;;;;;;;8.13;5.67;;;24.80;80.50;;;;;;5130615;27;20193;-74
2023/05/27 10:53:39;;;;;;;9.30;5.13;;;24.90;81.70;;;;;;5131401;27;20264;-72
2023/05/27 10:56:05;;;;;;;11.10;6.37;;;25.00;81.40;;;;;;5131906;27;20190;-73
2023/05/27 10:58:35;;;;;;;8.07;5.23;;;24.90;81.60;;;;;;5112884;27;20242;-69
2023/05/27 11:01:13;;;;;;;7.37;5.27;;;24.80;83.80;;;;;;5131666;27;20410;-67
2023/05/27 11:03:45;;;;;;;10.03;5.67;;;25.00;82.10;;;;;;5131059;27;20409;-71
2023/05/27 11:06:13;;;;;;;10.63;5.93;;;25.00;79.60;;;;;;5130864;27;20411;-70
2023/05/27 11:08:39;;;;;;;7.97;5.80;;;24.80;79.10;;;;;;5130773;27;20424;-70
2023/05/27 11:11:08;;;;;;;17.37;5.37;;;24.60;80.00;;;;;;5130777;27;20417;-69
2023/05/27 11:13:36;;;;;;;11.87;5.50;;;24.70;83.60;;;;;;5130867;27;20494;-70
2023/05/27 11:16:04;;;;;;;9.27;6.07;;;24.90;82.10;;;;;;5130803;27;20413;-70
2023/05/27 11:18:41;;;;;;;11.40;6.10;;;24.90;81.90;;;;;;5130530;27;20430;-70
2023/05/27 11:21:08;;;;;;;9.60;6.17;;;25.00;80.10;;;;;;5130394;27;20505;-69
2023/05/27 11:23:43;;;;;;;10.43;5.30;;;24.80;79.70;;;;;;5130479;27;20417;-70
2023/05/27 11:26:22;;;;;;;10.63;5.67;;;24.40;81.00;;;;;;5129944;27;20425;-69
2023/05/27 11:28:52;;;;;;;10.10;5.60;;;24.50;83.30;;;;;;5130311;27;20949;-69
2023/05/27 11:31:19;;;;;;;10.40;5.83;;;24.60;81.70;;;;;;5129763;27;20436;-70
2023/05/27 11:33:46;;;;;;;9.80;5.57;;;24.50;80.70;;;;;;5129691;27;20528;-71
2023/05/27 11:36:14;;;;;;;12.60;6.30;;;24.40;80.90;;;;;;5111108;27;20429;-71
2023/05/27 11:38:57;;;;;;;13.83;5.87;;;24.50;80.80;;;;;;5111222;27;21275;-70
2023/05/27 11:41:26;;;;;;;10.30;5.60;;;24.50;81.50;;;;;;5129544;27;20481;-70
2023/05/27 11:44:06;;;;;;;16.03;5.87;;;24.50;80.80;;;;;;5130251;27;20414;-70
2023/05/27 11:46:40;;;;;;;12.70;5.80;;;24.70;80.10;;;;;;5130303;27;21262;-69
2023/05/27 11:49:07;;;;;;;13.23;6.17;;;24.70;81.20;;;;;;5130338;27;20877;-70
2023/05/27 11:51:47;;;;;;;13.60;6.57;;;24.80;82.10;;;;;;5129676;27;20811;-73
2023/05/27 11:54:25;;;;;;;8.97;5.40;;;24.70;80.00;;;;;;5130501;27;20958;-71
2023/05/27 11:56:52;;;;;;;9.53;5.40;;;24.70;80.10;;;;;;5130051;27;20438;-71
2023/05/27 11:59:18;;;;;;;11.10;5.70;;;24.80;79.70;;;;;;5111180;27;20482;-71
2023/05/27 12:01:44;;;;;;;6.87;5.00;;;24.90;76.80;;;;;;5128965;27;20476;-72
2023/05/27 12:04:11;;;;;;;10.97;5.50;;;25.10;79.60;;;;;;5110878;27;20448;-73
2023/05/27 12:06:37;;;;;;;14.03;5.77;;;25.20;80.30;;;;;;5129263;27;20498;-71
2023/05/27 12:09:07;;;;;;;11.30;5.80;;;25.20;81.50;;;;;;5111119;27;20772;-71
2023/05/27 12:11:33;;;;;;;10.17;5.23;;;25.40;80.10;;;;;;5130311;27;20552;-71
2023/05/27 12:13:59;;;;;;;12.40;6.17;;;25.40;78.40;;;;;;5129703;27;20893;-71
2023/05/27 12:16:25;;;;;;;15.17;6.50;;;25.40;78.70;;;;;;5110966;27;20963;-71
2023/05/27 12:18:51;;;;;;;10.07;5.80;;;25.30;77.80;;;;;;5129878;27;20426;-71
2023/05/27 12:21:17;;;;;;;8.93;5.70;;;25.30;78.70;;;;;;5129747;27;20987;-71
2023/05/27 12:23:43;;;;;;;10.50;5.23;;;25.40;79.60;;;;;;5129765;27;20177;-70
2023/05/27 12:26:09;;;;;;;14.47;5.57;;;25.40;80.70;;;;;;5129479;27;20421;-69
2023/05/27 12:28:35;;;;;;;12.70;5.93;;;25.20;77.70;;;;;;5129683;27;20429;-68
2023/05/27 12:31:01;;;;;;;13.30;5.80;;;25.10;77.10;;;;;;5129694;27;20558;-69
2023/05/27 12:33:27;;;;;;;12.80;5.57;;;25.10;77.70;;;;;;5111148;27;20978;-68
2023/05/27 12:35:52;;;;;;;9.30;5.97;;;25.20;77.10;;;;;;5129592;27;20286;-69
2023/05/27 12:38:18;;;;;;;9.97;6.00;;;25.10;77.20;;;;;;5129576;27;20197;-69